createdAt,value
2022-11-24T00:01:27.805Z,99566.84
2022-11-24T00:07:30.129Z,99564.34
2022-11-24T00:13:33.417Z,99572.72
2022-11-24T00:19:35.373Z,99574.91
2022-11-24T00:25:39.821Z,99573.03
2022-11-24T00:31:43.038Z,99568.41
2022-11-24T00:37:44.943Z,99570.75
2022-11-24T00:43:47.210Z,99575.56
2022-11-24T00:49:49.363Z,99589.03
2022-11-24T00:55:52.199Z,99602.06
2022-11-24T01:01:57.121Z,99597.72
2022-11-24T01:07:59.111Z,99596.16
2022-11-24T01:14:01.012Z,99597.09
2022-11-24T01:20:05.731Z,99595.03
2022-11-24T01:26:09.942Z,99591.94
2022-11-24T01:32:12.853Z,99591.94
2022-11-24T01:38:14.758Z,99586.22
2022-11-24T01:44:27.556Z,99594.28
2022-11-24T01:50:31.358Z,99601.25
2022-11-24T01:56:41.124Z,99605.34
2022-11-24T02:02:45.283Z,99600.56
2022-11-24T02:09:12.581Z,99598.72
2022-11-24T02:15:16.314Z,99603.00
2022-11-24T02:21:20.049Z,99604.13
2022-11-24T02:27:22.238Z,99620.53
2022-11-24T02:33:26.787Z,99619.72
2022-11-24T02:39:29.159Z,99616.38
2022-11-24T02:45:33.982Z,99622.59
2022-11-24T02:51:36.094Z,99624.06
2022-11-24T02:57:38.653Z,99618.94
2022-11-24T03:03:40.574Z,99626.91
2022-11-24T03:09:42.739Z,99626.75
2022-11-24T03:15:45.228Z,99630.13
2022-11-24T03:21:47.274Z,99620.91
2022-11-24T03:27:50.244Z,99634.41
2022-11-24T03:33:52.297Z,99630.56
2022-11-24T03:39:55.497Z,99629.63
2022-11-24T03:46:00.307Z,99630.47
2022-11-24T03:52:07.654Z,99619.91
2022-11-24T03:58:10.313Z,99634.47
2022-11-24T04:04:13.230Z,99626.22
2022-11-24T04:10:15.253Z,99638.94
2022-11-24T04:16:18.570Z,99646.91
2022-11-24T04:22:20.550Z,99649.84
2022-11-24T04:28:22.999Z,99654.97
2022-11-24T04:34:24.948Z,99649.59
2022-11-24T04:40:27.090Z,99646.97
2022-11-24T04:46:29.415Z,99665.72
2022-11-24T04:52:35.367Z,99672.41
2022-11-24T04:58:37.737Z,99688.13
2022-11-24T05:04:43.358Z,99668.34
2022-11-24T05:10:45.496Z,99676.13
2022-11-24T05:16:47.406Z,99683.56
2022-11-24T09:15:17.260Z,99868.56
2022-11-24T09:21:21.254Z,99872.38
2022-11-24T09:27:24.521Z,99872.13
2022-11-24T09:33:27.670Z,99871.38
2022-11-24T09:39:29.740Z,99877.38
2022-11-24T09:46:06.211Z,99880.31
2022-11-24T09:52:17.301Z,99868.50
2022-11-24T10:05:06.013Z,99852.88
2022-11-24T10:11:31.877Z,99857.88
2022-11-24T10:17:45.618Z,99854.13
2022-11-24T10:24:13.826Z,99856.19
2022-11-24T10:30:24.109Z,99854.00
2022-11-24T10:36:40.401Z,99843.41
2022-11-24T10:42:43.682Z,99842.47
2022-11-24T10:48:51.922Z,99842.81
2022-11-24T10:55:01.774Z,99843.25
2022-11-24T11:01:14.372Z,99839.72
2022-11-24T11:07:33.899Z,99845.13
2022-11-24T11:13:35.918Z,99842.84
2022-11-24T11:20:01.707Z,99836.91
2022-11-24T11:26:38.324Z,99839.84
2022-11-24T11:39:43.842Z,99838.91
2022-11-24T11:46:02.442Z,99835.19
2022-11-24T11:52:26.313Z,99831.31
2022-11-24T11:58:39.197Z,99844.84
2022-11-24T12:05:12.064Z,99834.41
2022-11-24T12:11:21.994Z,99831.63
2022-11-24T12:17:33.478Z,99823.91
2022-11-24T12:23:54.355Z,99827.78
2022-11-24T12:30:11.266Z,99822.53
2022-11-24T12:36:17.161Z,99835.59
2022-11-24T12:42:35.965Z,99830.69
2022-11-24T12:48:59.772Z,99840.31
2022-11-24T12:55:03.900Z,99844.59
2022-11-24T13:01:38.334Z,99850.13
2022-11-24T13:07:46.913Z,99854.22
2022-11-24T13:14:14.123Z,99860.41
2022-11-24T13:20:31.703Z,99856.00
2022-11-24T13:26:43.729Z,99863.78
2022-11-24T13:32:46.981Z,99858.38
2022-11-24T13:38:48.932Z,99857.06
2022-11-24T13:45:00.317Z,99862.59
2022-11-24T13:51:02.235Z,99859.63
2022-11-24T13:57:33.391Z,99860.75
2022-11-24T14:03:55.390Z,99871.06
2022-11-24T14:09:58.552Z,99874.28
2022-11-24T14:16:04.721Z,99876.81
2022-11-24T14:22:16.274Z,99876.25
2022-11-24T14:28:30.530Z,99890.03
2022-11-24T14:34:37.001Z,99905.63
2022-11-24T14:40:43.294Z,99901.06
2022-11-24T14:46:45.741Z,99904.22
2022-11-24T14:52:54.287Z,99905.56
2022-11-24T14:58:57.971Z,99914.53
2022-11-24T15:05:03.228Z,99918.59
2022-11-24T15:11:08.028Z,99912.00
2022-11-24T15:17:20.449Z,99928.75
2022-11-24T15:23:27.903Z,99917.25
2022-11-24T15:29:30.907Z,99919.88
2022-11-24T15:35:34.089Z,99919.31
2022-11-24T15:41:36.047Z,99923.19
2022-11-24T15:47:37.985Z,99913.94
2022-11-24T15:53:45.100Z,99921.91
2022-11-24T15:59:47.107Z,99923.94
2022-11-24T16:05:53.408Z,99922.00
2022-11-24T16:11:55.369Z,99922.59
2022-11-24T16:17:57.833Z,99919.34
2022-11-24T16:24:00.473Z,99928.28
2022-11-24T16:30:02.613Z,99933.53
2022-11-24T16:36:05.609Z,99934.69
2022-11-24T16:42:08.405Z,99926.47
2022-11-24T16:48:11.285Z,99932.09
2022-11-24T16:54:15.568Z,99941.03
2022-11-24T17:00:18.075Z,99938.59
2022-11-24T17:06:20.284Z,99935.25
2022-11-24T17:12:24.134Z,99958.84
2022-11-24T17:18:26.072Z,99956.06
2022-11-24T17:24:28.042Z,99960.31
2022-11-24T17:30:30.124Z,99952.44
2022-11-24T17:36:35.689Z,99971.19
2022-11-24T17:42:37.608Z,99965.88
2022-11-24T17:48:40.624Z,99968.28
2022-11-24T17:54:46.763Z,99960.25
2022-11-24T18:00:49.840Z,99961.41
2022-11-24T18:06:53.001Z,99953.81
2022-11-24T18:12:55.090Z,99959.34
2022-11-24T18:19:14.348Z,99961.03
2022-11-24T18:25:19.379Z,99966.09
2022-11-24T18:31:22.561Z,99963.56
2022-11-24T18:37:24.847Z,99965.41
2022-11-24T18:43:28.717Z,99982.03
2022-11-24T18:49:32.123Z,99987.88
2022-11-24T18:55:34.126Z,99985.97
2022-11-24T19:01:37.757Z,99975.13
2022-11-24T19:07:39.845Z,99985.00
2022-11-24T19:13:41.821Z,99973.41
2022-11-24T19:19:43.985Z,99979.38
2022-11-24T19:25:45.993Z,99993.91
2022-11-24T19:31:49.420Z,99986.31
2022-11-24T19:37:51.605Z,100003.88
2022-11-24T19:43:56.695Z,99989.72
2022-11-24T19:49:58.653Z,99989.47
2022-11-24T19:56:26.000Z,100001.63
2022-11-24T20:02:29.609Z,99993.13
2022-11-24T20:08:34.173Z,100001.38
2022-11-24T20:14:36.345Z,99997.56
2022-11-24T20:20:38.532Z,99996.91
2022-11-24T20:26:49.476Z,100010.75
2022-11-24T20:32:51.433Z,100007.13
2022-11-24T20:38:54.516Z,100010.88
2022-11-24T20:45:00.981Z,100013.09
2022-11-24T20:51:04.796Z,100014.09
2022-11-24T20:57:06.801Z,100015.88
2022-11-24T21:03:08.748Z,100027.47
2022-11-24T21:09:12.553Z,100031.00
2022-11-24T21:15:14.578Z,100019.69
2022-11-24T21:21:19.848Z,100028.69
2022-11-24T21:27:21.849Z,100034.31
2022-11-24T21:33:24.708Z,100037.97
2022-11-24T21:39:29.415Z,100037.38
2022-11-24T21:45:34.823Z,100047.16
2022-11-24T21:51:36.836Z,100046.31
2022-11-24T21:57:39.269Z,100062.72
2022-11-24T22:03:41.378Z,100056.47
2022-11-24T22:09:43.743Z,100053.94
2022-11-24T22:15:46.000Z,100065.78
2022-11-24T22:21:48.424Z,100069.88
2022-11-24T22:27:51.007Z,100065.94
2022-11-24T22:33:55.068Z,100078.38
2022-11-24T22:39:57.186Z,100073.91
2022-11-24T22:46:06.355Z,100081.34
2022-11-24T22:52:08.972Z,100078.94
2022-11-24T22:58:10.896Z,100075.81
2022-11-24T23:04:13.671Z,100085.56
2022-11-24T23:10:16.591Z,100086.50
2022-11-24T23:16:19.914Z,100085.38
2022-11-24T23:22:21.906Z,100094.88
2022-11-24T23:28:23.804Z,100093.81
2022-11-24T23:34:25.814Z,100110.00
2022-11-24T23:40:27.921Z,100121.25
2022-11-24T23:46:30.617Z,100131.69
2022-11-24T23:52:33.276Z,100134.66
2022-11-24T23:58:36.253Z,100136.28
